Time;durP1;ratioP1;P1;durP2;ratioP2;P2;SDS_P1;SDS_P2;PMS_P1;PMS_P2;Temp;Humidity;BMP_temperature;BMP_pressure;BME280_temperature;BME280_humidity;BME280_pressure;Samples;Min_cycle;Max_cycle;Signal;HPM_P1;HPM_P2
2022/12/10 00:01:18;;;;;;;118.50;47.47;;;;;;;-0.50;100.00;98948.28;4208949;28;20370;-78
2022/12/10 00:03:45;;;;;;;126.27;48.40;;;;;;;-0.44;100.00;98950.47;4204582;28;20396;-75
2022/12/10 00:06:14;;;;;;;135.67;49.57;;;;;;;-0.39;100.00;98936.25;4209044;28;20287;-74
2022/12/10 00:08:41;;;;;;;128.17;48.90;;;;;;;-0.43;100.00;98938.22;4218640;28;20305;-74
2022/12/10 00:11:09;;;;;;;119.60;47.57;;;;;;;-0.44;100.00;98934.78;4228087;28;20225;-73
2022/12/10 00:13:36;;;;;;;126.53;47.60;;;;;;;-0.34;100.00;98934.94;4211589;28;20705;-76
2022/12/10 00:16:05;;;;;;;129.50;48.37;;;;;;;-0.39;100.00;98934.47;4206847;28;20244;-74
2022/12/10 00:18:32;;;;;;;127.87;48.07;;;;;;;-0.39;100.00;98934.47;4231383;28;21829;-76
2022/12/10 00:21:03;;;;;;;120.63;49.27;;;;;;;-0.43;100.00;98931.22;4206609;28;20283;-74
2022/12/10 00:23:31;;;;;;;127.63;47.10;;;;;;;-0.39;100.00;98944.09;4196231;28;20303;-73
2022/12/10 00:26:06;;;;;;;131.90;49.37;;;;;;;-0.39;100.00;98944.91;4210987;28;20363;-75
2022/12/10 00:28:33;;;;;;;134.10;49.90;;;;;;;-0.35;100.00;98937.66;4224872;28;21551;-73
2022/12/10 00:31:04;;;;;;;113.63;45.97;;;;;;;-0.51;100.00;98941.41;4195243;28;20237;-74
2022/12/10 00:33:31;;;;;;;127.43;47.17;;;;;;;-0.48;100.00;98940.34;4199304;28;24346;-74
2022/12/10 00:36:07;;;;;;;126.20;47.10;;;;;;;-0.41;100.00;98932.91;4210108;28;20231;-75
2022/12/10 00:38:37;;;;;;;132.37;48.33;;;;;;;-0.41;100.00;98936.34;4205338;28;20416;-75
2022/12/10 00:41:03;;;;;;;126.80;48.57;;;;;;;-0.47;100.00;98931.56;4223397;28;23012;-73
2022/12/10 00:43:30;;;;;;;129.67;49.13;;;;;;;-0.54;100.00;98941.66;4213069;28;20369;-77
2022/12/10 00:45:57;;;;;;;129.17;47.80;;;;;;;-0.55;100.00;98942.56;4209638;28;20239;-75
2022/12/10 00:48:24;;;;;;;129.10;48.63;;;;;;;-0.51;100.00;98946.63;4210565;28;20388;-76
2022/12/10 00:51:01;;;;;;;126.93;48.80;;;;;;;-0.55;100.00;98939.13;4213367;28;20233;-74
2022/12/10 00:53:29;;;;;;;134.60;48.97;;;;;;;-0.64;100.00;98944.06;4213338;28;20250;-74
2022/12/10 00:55:56;;;;;;;140.60;50.97;;;;;;;-0.58;100.00;98945.41;4210307;28;20235;-76
2022/12/10 00:58:23;;;;;;;131.07;48.80;;;;;;;-0.48;100.00;98949.03;4212218;28;20569;-73
2022/12/10 01:00:49;;;;;;;129.27;46.97;;;;;;;-0.51;100.00;98951.88;4189611;28;20243;-73
2022/12/10 01:03:16;;;;;;;137.67;49.30;;;;;;;-0.51;100.00;98946.63;4211378;28;22138;-74
2022/12/10 01:05:42;;;;;;;130.80;48.63;;;;;;;-0.41;100.00;98945.97;4228307;28;24960;-73
2022/12/10 01:08:09;;;;;;;130.13;47.63;;;;;;;-0.44;100.00;98941.81;4217950;28;21450;-73
2022/12/10 01:10:36;;;;;;;139.77;48.80;;;;;;;-0.41;100.00;98931.13;4202358;28;20264;-75
2022/12/10 01:13:03;;;;;;;128.93;48.80;;;;;;;-0.45;100.00;98940.94;4212572;28;20243;-75
2022/12/10 01:15:29;;;;;;;141.63;49.07;;;;;;;-0.48;100.00;98941.19;4194023;28;20301;-73
2022/12/10 01:17:56;;;;;;;130.77;48.77;;;;;;;-0.43;100.00;98936.44;4205177;28;20298;-74
2022/12/10 01:20:23;;;;;;;127.37;48.53;;;;;;;-0.47;100.00;98931.56;4213834;28;20260;-75
2022/12/10 01:22:49;;;;;;;135.57;48.10;;;;;;;-0.50;100.00;98926.56;4218104;28;20227;-73
2022/12/10 01:25:16;;;;;;;125.70;48.10;;;;;;;-0.55;100.00;98929.50;4212053;28;20332;-74
2022/12/10 01:27:42;;;;;;;141.60;49.67;;;;;;;-0.54;100.00;98920.75;4192969;28;20238;-74
2022/12/10 01:30:10;;;;;;;123.27;47.90;;;;;;;-0.47;100.00;98931.56;4208172;28;21816;-75
2022/12/10 01:32:36;;;;;;;132.83;47.30;;;;;;;-0.51;100.00;98924.91;4230045;28;20323;-72
2022/12/10 01:35:03;;;;;;;136.33;47.93;;;;;;;-0.49;100.00;98929.06;4225007;28;20227;-74
2022/12/10 01:37:29;;;;;;;132.73;48.37;;;;;;;-0.54;100.00;98915.53;4225148;28;20303;-73
2022/12/10 01:39:56;;;;;;;141.30;50.23;;;;;;;-0.52;100.00;98913.59;4225957;28;20235;-74
2022/12/10 01:42:23;;;;;;;138.43;48.70;;;;;;;-0.46;100.00;98913.16;4223048;28;20251;-73
2022/12/10 01:44:49;;;;;;;130.47;47.57;;;;;;;-0.41;100.00;98909.38;4231044;28;21193;-74
2022/12/10 01:47:16;;;;;;;122.20;46.63;;;;;;;-0.55;100.00;98908.59;4244040;28;20752;-73
2022/12/10 01:49:42;;;;;;;128.80;46.20;;;;;;;-0.47;100.00;98910.66;4221757;28;20321;-75
2022/12/10 01:52:10;;;;;;;131.50;48.00;;;;;;;-0.55;100.00;98907.78;4218292;28;21858;-73
2022/12/10 01:54:43;;;;;;;131.43;48.07;;;;;;;-0.58;100.00;98903.63;4229310;28;20237;-73
2022/12/10 01:57:12;;;;;;;136.77;46.57;;;;;;;-0.66;100.00;98906.78;4222331;28;20569;-74
2022/12/10 01:59:39;;;;;;;132.43;47.47;;;;;;;-0.62;100.00;98902.16;4213478;28;20955;-71
2022/12/10 02:02:34;;;;;;;136.00;48.63;;;;;;;-0.58;100.00;98908.00;4229618;28;20455;-74
2022/12/10 02:05:04;;;;;;;130.13;47.20;;;;;;;-0.56;100.00;98909.56;4220796;28;20783;-72
2022/12/10 02:07:39;;;;;;;141.17;46.27;;;;;;;-0.49;100.00;98918.63;4231480;28;22477;-75
2022/12/10 02:10:31;;;;;;;134.53;47.10;;;;;;;-0.57;100.00;98913.09;4235955;28;22585;-72
2022/12/10 02:13:00;;;;;;;134.47;45.87;;;;;;;-0.60;100.00;98909.91;4236248;28;20642;-73
2022/12/10 02:15:31;;;;;;;143.50;48.23;;;;;;;-0.66;100.00;98911.16;4236990;28;21619;-73
2022/12/10 02:18:09;;;;;;;130.33;45.20;;;;;;;-0.58;100.00;98908.84;4207465;28;21204;-77
2022/12/10 02:20:40;;;;;;;139.47;47.67;;;;;;;-0.61;100.00;98909.03;4221988;28;21821;-73
2022/12/10 02:23:36;;;;;;;134.13;47.43;;;;;;;-0.76;100.00;98910.19;4211516;28;20231;-72
2022/12/10 02:26:13;;;;;;;135.00;45.20;;;;;;;-0.71;100.00;98902.84;4226479;28;20309;-73
2022/12/10 02:28:51;;;;;;;135.80;46.40;;;;;;;-0.74;100.00;98905.69;4228808;28;20230;-74
2022/12/10 02:31:22;;;;;;;142.23;46.50;;;;;;;-0.65;100.00;98911.06;4223402;28;21027;-75
2022/12/10 02:33:53;;;;;;;136.67;47.23;;;;;;;-0.77;100.00;98919.78;4224177;28;20247;-75
2022/12/10 02:36:21;;;;;;;138.53;46.43;;;;;;;-0.69;100.00;98914.00;4225417;28;20231;-74
2022/12/10 02:38:48;;;;;;;136.67;45.80;;;;;;;-0.72;100.00;98917.69;4208656;28;20245;-74
2022/12/10 02:41:23;;;;;;;133.80;45.23;;;;;;;-0.63;100.00;98913.56;4204869;28;20595;-75
2022/12/10 02:43:52;;;;;;;128.87;43.13;;;;;;;-0.66;100.00;98911.16;4208948;28;20735;-74
2022/12/10 02:46:19;;;;;;;130.87;42.93;;;;;;;-0.66;100.00;98917.25;4207119;28;20383;-73
2022/12/10 02:48:47;;;;;;;119.83;43.17;;;;;;;-0.66;100.00;98919.84;4224074;28;21200;-73
2022/12/10 02:51:14;;;;;;;131.20;44.20;;;;;;;-0.64;100.00;98920.56;4204574;28;20422;-72
2022/12/10 02:53:42;;;;;;;125.20;42.60;;;;;;;-0.73;100.00;98918.59;4214336;28;20235;-71
2022/12/10 02:56:23;;;;;;;119.77;39.73;;;;;;;-0.59;100.00;98920.22;4231393;28;20355;-72
2022/12/10 02:59:09;;;;;;;126.40;41.93;;;;;;;-0.57;100.00;98918.34;4234477;28;20291;-71
2022/12/10 03:01:45;;;;;;;115.73;40.00;;;;;;;-0.63;100.00;98924.03;4241302;28;20492;-75
2022/12/10 03:04:17;;;;;;;115.30;39.97;;;;;;;-0.62;100.00;98917.84;4223215;28;20405;-72
2022/12/10 03:06:51;;;;;;;117.70;40.53;;;;;;;-0.61;100.00;98919.50;4232729;28;21463;-73
2022/12/10 03:09:30;;;;;;;111.70;39.77;;;;;;;-0.65;100.00;98912.84;4206816;28;20377;-74
2022/12/10 03:12:00;;;;;;;122.60;41.30;;;;;;;-0.58;100.00;98908.00;4216683;28;20245;-72
2022/12/10 03:14:30;;;;;;;117.77;40.77;;;;;;;-0.51;100.00;98904.84;4218950;28;20589;-74
2022/12/10 03:17:01;;;;;;;114.97;40.60;;;;;;;-0.50;100.00;98906.47;4218524;28;20231;-74
2022/12/10 03:19:35;;;;;;;116.53;39.93;;;;;;;-0.67;100.00;98896.44;4210806;28;20246;-73
2022/12/10 03:22:03;;;;;;;108.13;38.97;;;;;;;-0.72;100.00;98907.22;4221880;28;20425;-70
2022/12/10 03:24:30;;;;;;;108.33;39.47;;;;;;;-0.78;100.00;98912.06;4205618;28;20237;-70
2022/12/10 03:26:57;;;;;;;105.60;39.10;;;;;;;-0.71;100.00;98914.09;4225155;28;20227;-71
2022/12/10 03:29:33;;;;;;;111.27;39.20;;;;;;;-0.69;100.00;98920.06;4223902;28;21812;-71
2022/12/10 03:32:01;;;;;;;111.77;38.67;;;;;;;-0.65;100.00;98918.91;4206238;28;20382;-71
2022/12/10 03:34:28;;;;;;;101.97;36.80;;;;;;;-0.66;100.00;98917.25;4221825;28;20699;-77
2022/12/10 03:36:54;;;;;;;106.30;39.97;;;;;;;-0.64;100.00;98919.72;4219694;28;20226;-72
2022/12/10 03:39:22;;;;;;;102.07;37.27;;;;;;;-0.71;100.00;98918.50;4208852;28;22906;-72
2022/12/10 03:41:48;;;;;;;113.80;37.83;;;;;;;-0.62;100.00;98906.56;4236543;28;25423;-74
2022/12/10 03:44:30;;;;;;;106.47;37.33;;;;;;;-0.68;100.00;98916.53;4208060;28;20325;-75
2022/12/10 03:46:57;;;;;;;108.37;38.40;;;;;;;-0.73;100.00;98915.16;4229952;28;20293;-71
2022/12/10 03:49:24;;;;;;;113.33;39.80;;;;;;;-0.65;100.00;98918.06;4238948;28;22070;-73
2022/12/10 03:51:51;;;;;;;112.00;38.53;;;;;;;-0.64;100.00;98922.34;4213017;28;20304;-71
2022/12/10 03:54:17;;;;;;;117.50;40.37;;;;;;;-0.64;100.00;98917.13;4221934;28;20232;-72
2022/12/10 03:56:44;;;;;;;130.43;41.57;;;;;;;-0.74;100.00;98923.97;4231380;28;20546;-72
2022/12/10 03:59:11;;;;;;;121.67;41.03;;;;;;;-0.71;100.00;98918.50;4233474;28;20549;-72
2022/12/10 04:01:38;;;;;;;125.80;42.17;;;;;;;-0.69;100.00;98911.41;4236670;28;20415;-70
2022/12/10 04:04:05;;;;;;;129.13;42.10;;;;;;;-0.60;100.00;98909.91;4222533;28;20242;-71
2022/12/10 04:06:32;;;;;;;119.07;41.87;;;;;;;-0.62;100.00;98915.22;4220470;28;21353;-72
2022/12/10 04:08:59;;;;;;;133.80;43.60;;;;;;;-0.63;100.00;98924.03;4237359;28;21138;-69
2022/12/10 04:11:26;;;;;;;120.03;39.90;;;;;;;-0.72;100.00;98914.25;4231785;28;20308;-70
2022/12/10 04:16:38;;;;;;;122.33;42.33;;;;;;;-0.73;100.00;98909.94;4214448;28;24851;-72
2022/12/10 04:19:13;;;;;;;133.37;42.03;;;;;;;-0.72;100.00;98915.06;4214832;28;21142;-72
2022/12/10 04:27:25;;;;;;;128.60;40.10;;;;;;;-0.79;100.00;98926.06;4221768;28;20402;-71
2022/12/10 04:29:53;;;;;;;136.37;40.57;;;;;;;-0.73;100.00;98928.22;4226574;28;20428;-76
2022/12/10 04:32:20;;;;;;;118.43;38.27;;;;;;;-0.75;100.00;98925.75;4212245;28;20231;-71
2022/12/10 04:34:47;;;;;;;124.97;38.17;;;;;;;-0.70;100.00;98917.56;4226918;28;22096;-72
2022/12/10 04:37:14;;;;;;;118.73;38.10;;;;;;;-0.74;100.00;98926.56;4227317;28;20302;-71
2022/12/10 04:39:40;;;;;;;120.13;38.07;;;;;;;-0.77;100.00;98927.63;4231834;28;20243;-73
2022/12/10 04:42:07;;;;;;;130.13;39.40;;;;;;;-0.79;100.00;98920.84;4227837;28;20234;-73
2022/12/10 04:44:36;;;;;;;132.33;41.17;;;;;;;-0.73;100.00;98925.63;4236468;28;21898;-74
2022/12/10 04:47:05;;;;;;;124.37;37.90;;;;;;;-0.69;100.00;98914.00;4223057;28;21251;-70
2022/12/10 04:49:32;;;;;;;130.13;40.00;;;;;;;-0.77;100.00;98929.38;4250932;28;20342;-72
2022/12/10 04:52:01;;;;;;;130.40;40.10;;;;;;;-0.66;100.00;98924.22;4223892;28;20278;-70
2022/12/10 04:54:28;;;;;;;126.33;37.13;;;;;;;-0.69;100.00;98929.69;4250629;28;20267;-73
2022/12/10 04:57:02;;;;;;;115.90;36.03;;;;;;;-0.72;100.00;98930.75;4214360;28;22269;-71
2022/12/10 04:59:29;;;;;;;129.07;38.20;;;;;;;-0.75;100.00;98928.34;4220332;28;20543;-72
2022/12/10 05:01:55;;;;;;;124.17;37.93;;;;;;;-0.70;100.00;98920.19;4230587;28;20312;-72
2022/12/10 05:04:22;;;;;;;124.83;37.60;;;;;;;-0.76;100.00;98931.91;4229001;28;20728;-72
2022/12/10 05:06:49;;;;;;;125.97;36.70;;;;;;;-0.65;100.00;98928.53;4231775;28;20251;-73
2022/12/10 05:09:16;;;;;;;125.50;36.60;;;;;;;-0.76;100.00;98926.66;4218996;28;21686;-71
2022/12/10 05:11:44;;;;;;;129.17;36.27;;;;;;;-0.75;100.00;98923.13;4224035;28;21712;-70
2022/12/10 05:14:12;;;;;;;133.03;38.67;;;;;;;-0.76;100.00;98933.69;4239765;28;22399;-74
2022/12/10 05:16:38;;;;;;;129.87;39.77;;;;;;;-0.78;100.00;98938.19;4227173;28;20235;-73
2022/12/10 05:19:05;;;;;;;131.87;37.57;;;;;;;-0.71;100.00;98939.41;4229727;28;20385;-76
2022/12/10 05:24:17;;;;;;;116.07;32.87;;;;;;;-0.67;100.00;98940.84;4228727;28;20447;-74
2022/12/10 05:26:44;;;;;;;116.97;34.70;;;;;;;-0.64;100.00;98951.91;4229397;28;20232;-73
2022/12/10 05:29:12;;;;;;;120.03;33.33;;;;;;;-0.67;100.00;98953.91;4248056;28;25350;-72
2022/12/10 05:31:39;;;;;;;110.37;34.67;;;;;;;-0.68;100.00;98960.06;4250480;28;20230;-73
2022/12/10 05:34:08;;;;;;;114.77;34.93;;;;;;;-0.67;100.00;98957.34;4221947;28;20237;-70
2022/12/10 05:36:34;;;;;;;121.40;34.83;;;;;;;-0.71;100.00;98955.91;4220563;28;20243;-71
2022/12/10 05:39:01;;;;;;;119.43;35.83;;;;;;;-0.60;100.00;98954.31;4223340;28;22177;-72
2022/12/10 05:41:29;;;;;;;121.60;35.47;;;;;;;-0.58;100.00;98963.69;4219860;28;20496;-75
2022/12/10 05:43:58;;;;;;;127.07;37.63;;;;;;;-0.60;100.00;98967.38;4227911;28;20240;-76
2022/12/10 05:46:28;;;;;;;109.57;34.50;;;;;;;-0.70;100.00;98967.22;4207782;28;20316;-75
2022/12/10 05:48:55;;;;;;;120.27;35.07;;;;;;;-0.77;100.00;98966.81;4232258;28;24988;-72
2022/12/10 05:51:24;;;;;;;120.97;37.73;;;;;;;-0.68;100.00;98958.31;4209239;28;21924;-70
2022/12/10 05:53:52;;;;;;;119.60;36.00;;;;;;;-0.83;100.00;98953.34;4218624;28;20447;-76
2022/12/10 05:56:21;;;;;;;127.17;35.20;;;;;;;-0.78;100.00;98953.84;4220141;28;20231;-75
2022/12/10 05:58:49;;;;;;;114.73;35.80;;;;;;;-0.87;100.00;98957.94;4208782;28;20235;-72
2022/12/10 06:01:22;;;;;;;117.03;35.93;;;;;;;-0.81;100.00;98959.28;4240286;28;20235;-72
2022/12/10 06:03:50;;;;;;;109.60;35.67;;;;;;;-0.76;100.00;98965.84;4222536;28;20318;-73
2022/12/10 06:06:24;;;;;;;109.87;33.70;;;;;;;-0.82;100.00;98968.91;4218488;28;20240;-76
2022/12/10 06:08:51;;;;;;;104.87;32.27;;;;;;;-0.77;100.00;98966.81;4229579;28;20240;-73
2022/12/10 06:11:17;;;;;;;115.50;34.67;;;;;;;-0.92;100.00;98971.31;4223274;28;20331;-76
2022/12/10 06:13:44;;;;;;;110.30;32.97;;;;;;;-0.89;100.00;98967.66;4205124;28;20435;-73
2022/12/10 06:16:13;;;;;;;101.70;32.23;;;;;;;-0.96;100.00;98969.88;4213243;28;20229;-74
2022/12/10 06:18:40;;;;;;;97.27;31.30;;;;;;;-0.98;100.00;98968.34;4210688;28;20242;-74
2022/12/10 06:21:09;;;;;;;92.93;29.13;;;;;;;-0.97;100.00;98965.59;4206855;28;20250;-74
2022/12/10 06:23:37;;;;;;;92.60;28.60;;;;;;;-1.06;100.00;98963.63;4211367;28;20228;-73
2022/12/10 06:26:09;;;;;;;98.40;29.10;;;;;;;-0.96;100.00;98969.88;4234355;28;23455;-75
2022/12/10 06:28:36;;;;;;;83.57;28.07;;;;;;;-1.06;100.00;98976.69;4230711;28;20262;-74
2022/12/10 06:31:03;;;;;;;96.27;29.37;;;;;;;-1.01;100.00;98989.41;4220808;28;21820;-75
2022/12/10 06:33:30;;;;;;;96.77;31.03;;;;;;;-1.04;100.00;98990.47;4221638;28;20248;-73
2022/12/10 06:35:56;;;;;;;83.97;27.90;;;;;;;-1.00;100.00;98991.94;4231088;28;20351;-76
2022/12/10 06:38:23;;;;;;;86.83;28.37;;;;;;;-1.06;100.00;98994.94;4226789;28;20269;-73
2022/12/10 06:40:49;;;;;;;84.77;26.93;;;;;;;-0.97;100.00;98994.31;4247017;28;22421;-76
2022/12/10 06:43:16;;;;;;;85.40;27.13;;;;;;;-0.94;100.00;98995.88;4218203;28;20460;-73
2022/12/10 06:45:43;;;;;;;94.60;27.33;;;;;;;-0.94;100.00;98999.31;4226985;28;22510;-74
2022/12/10 06:48:09;;;;;;;86.87;27.77;;;;;;;-0.98;100.00;99003.09;4243585;28;22910;-69
2022/12/10 06:50:36;;;;;;;91.53;25.70;;;;;;;-1.00;100.00;98999.75;4251344;28;28251;-69
2022/12/10 06:53:03;;;;;;;91.13;26.83;;;;;;;-0.93;100.00;99008.00;4231213;28;21249;-72
2022/12/10 06:55:29;;;;;;;88.43;26.43;;;;;;;-0.74;100.00;99005.75;4223503;28;20404;-72
2022/12/10 06:57:56;;;;;;;89.73;28.00;;;;;;;-0.78;100.00;99008.69;4236858;28;20235;-72
2022/12/10 07:00:23;;;;;;;81.23;26.23;;;;;;;-0.68;100.00;99001.84;4222251;28;20313;-74
2022/12/10 07:02:49;;;;;;;89.23;26.70;;;;;;;-0.81;100.00;99004.53;4228142;28;20531;-70
2022/12/10 07:05:16;;;;;;;94.53;28.07;;;;;;;-0.81;100.00;99003.69;4230132;28;20228;-73
2022/12/10 07:07:42;;;;;;;86.93;27.03;;;;;;;-0.77;100.00;98994.69;4250073;28;20287;-72
2022/12/10 07:10:09;;;;;;;79.33;25.33;;;;;;;-0.75;100.00;99005.84;4200751;28;20359;-73
2022/12/10 07:12:36;;;;;;;91.53;28.00;;;;;;;-0.72;100.00;99000.44;4214823;28;23402;-68
2022/12/10 07:15:03;;;;;;;89.43;26.60;;;;;;;-0.69;100.00;99000.22;4236351;28;21424;-73
2022/12/10 07:17:30;;;;;;;90.60;27.70;;;;;;;-0.76;100.00;98993.75;4223392;28;23158;-69
2022/12/10 07:19:56;;;;;;;94.00;27.27;;;;;;;-0.70;100.00;98993.31;4226237;28;21130;-72
2022/12/10 07:22:23;;;;;;;88.57;28.70;;;;;;;-0.80;100.00;99000.94;4219473;28;20239;-74
2022/12/10 07:24:50;;;;;;;97.17;28.77;;;;;;;-0.77;100.00;98997.28;4223550;28;20411;-71
2022/12/10 07:27:16;;;;;;;96.67;29.47;;;;;;;-0.76;100.00;98993.75;4218114;28;21818;-72
2022/12/10 07:29:44;;;;;;;93.77;28.00;;;;;;;-0.76;100.00;98983.31;4221310;28;20243;-70
2022/12/10 07:32:10;;;;;;;89.67;27.67;;;;;;;-0.77;100.00;98995.53;4209700;28;22358;-71
2022/12/10 07:34:37;;;;;;;98.97;30.33;;;;;;;-0.78;100.00;98990.41;4211862;28;20238;-70
2022/12/10 07:37:03;;;;;;;96.10;28.40;;;;;;;-0.67;100.00;98996.53;4203518;28;21348;-73
2022/12/10 07:39:30;;;;;;;98.07;30.33;;;;;;;-0.59;100.00;98998.59;4244420;28;21726;-72
2022/12/10 07:41:56;;;;;;;101.53;29.90;;;;;;;-0.58;100.00;99002.88;4253034;28;22877;-76
2022/12/10 07:44:24;;;;;;;91.67;28.03;;;;;;;-0.54;100.00;99000.88;4240806;28;26304;-73
2022/12/10 07:46:52;;;;;;;93.63;28.97;;;;;;;-0.60;100.00;99011.78;4231600;28;20308;-70
2022/12/10 07:49:19;;;;;;;94.57;29.57;;;;;;;-0.53;100.00;99007.78;4233454;28;20298;-72
2022/12/10 07:51:47;;;;;;;98.53;28.23;;;;;;;-0.53;100.00;99021.69;4244471;28;21245;-75
2022/12/10 07:54:14;;;;;;;91.73;28.90;;;;;;;-0.44;100.00;99013.19;4221402;28;21755;-72
2022/12/10 07:56:41;;;;;;;96.93;29.33;;;;;;;-0.47;100.00;99009.94;4215098;28;20327;-72
2022/12/10 07:59:07;;;;;;;81.93;27.10;;;;;;;-0.45;100.00;99003.66;4214753;28;20240;-73
2022/12/10 08:01:34;;;;;;;90.10;27.73;;;;;;;-0.54;100.00;99003.50;4225385;28;20278;-73
2022/12/10 08:04:01;;;;;;;89.87;27.60;;;;;;;-0.50;100.00;98995.31;4222539;28;22066;-71
2022/12/10 08:06:29;;;;;;;98.10;29.37;;;;;;;-0.54;100.00;98996.50;4207735;28;22913;-76
2022/12/10 08:08:58;;;;;;;87.73;26.93;;;;;;;-0.54;100.00;99009.56;4225237;28;21738;-70
2022/12/10 08:11:26;;;;;;;81.77;25.70;;;;;;;-0.63;100.00;99005.00;4223415;28;20424;-71
2022/12/10 08:13:53;;;;;;;85.00;26.50;;;;;;;-0.53;100.00;98997.34;4247228;28;20226;-75
2022/12/10 08:16:25;;;;;;;78.20;26.97;;;;;;;-0.54;100.00;99001.72;4254761;28;20256;-73
2022/12/10 08:18:53;;;;;;;76.70;24.93;;;;;;;-0.61;100.00;98999.66;4239693;28;21743;-75
2022/12/10 08:21:22;;;;;;;78.80;24.97;;;;;;;-0.63;100.00;99007.63;4230962;28;20243;-71
2022/12/10 08:23:49;;;;;;;70.30;22.60;;;;;;;-0.51;100.00;99003.28;4267493;28;20237;-73
2022/12/10 08:26:21;;;;;;;74.77;24.00;;;;;;;-0.46;100.00;98999.38;4212256;28;20249;-73
2022/12/10 08:28:48;;;;;;;65.83;22.43;;;;;;;-0.43;100.00;98996.53;4211388;28;21053;-70
2022/12/10 08:31:16;;;;;;;72.27;22.87;;;;;;;-0.47;100.00;98992.50;4233014;28;22448;-70
2022/12/10 08:33:44;;;;;;;66.50;21.10;;;;;;;-0.41;100.00;98998.22;4242470;28;20535;-69
2022/12/10 08:36:12;;;;;;;67.93;22.33;;;;;;;-0.36;100.00;99001.34;4218752;28;20244;-70
2022/12/10 08:38:39;;;;;;;61.57;22.07;;;;;;;-0.41;100.00;99000.84;4226752;28;25555;-71
2022/12/10 08:41:11;;;;;;;64.57;21.53;;;;;;;-0.37;100.00;99005.75;4232808;28;20701;-70
2022/12/10 08:43:38;;;;;;;69.50;22.73;;;;;;;-0.38;100.00;98998.81;4230974;28;20271;-69
2022/12/10 08:46:04;;;;;;;64.83;20.50;;;;;;;-0.40;100.00;99005.13;4211527;28;21699;-70
2022/12/10 08:48:32;;;;;;;59.43;20.43;;;;;;;-0.48;100.00;99003.88;4212827;28;25831;-68
2022/12/10 08:50:59;;;;;;;71.53;21.23;;;;;;;-0.47;100.00;99009.94;4203590;28;20967;-70
2022/12/10 08:53:25;;;;;;;68.67;20.50;;;;;;;-0.53;100.00;99000.78;4238761;28;20252;-68
2022/12/10 08:55:53;;;;;;;67.80;21.40;;;;;;;-0.34;100.00;99004.69;4208285;28;20233;-69
2022/12/10 08:58:20;;;;;;;65.17;21.17;;;;;;;-0.32;100.00;99006.25;4213076;28;21802;-72
2022/12/10 09:00:48;;;;;;;64.00;21.57;;;;;;;-0.35;100.00;99003.84;4228355;28;20290;-74
2022/12/10 09:03:15;;;;;;;58.40;19.60;;;;;;;-0.40;100.00;99005.13;4206080;28;20240;-69
2022/12/10 09:05:42;;;;;;;60.17;20.37;;;;;;;-0.30;100.00;99011.38;4212683;28;20304;-71
2022/12/10 09:08:09;;;;;;;65.17;21.47;;;;;;;-0.23;100.00;99013.41;4207299;28;20234;-71
2022/12/10 09:10:37;;;;;;;59.13;20.20;;;;;;;-0.20;100.00;99014.13;4237219;28;20608;-69
2022/12/10 09:13:03;;;;;;;60.13;19.50;;;;;;;-0.31;100.00;99014.91;4202190;28;20352;-74
2022/12/10 09:15:30;;;;;;;63.97;19.73;;;;;;;-0.28;100.00;99019.91;4208226;28;20236;-69
2022/12/10 09:17:57;;;;;;;53.17;19.07;;;;;;;-0.19;100.00;99023.63;4225306;28;20253;-71
2022/12/10 09:20:23;;;;;;;61.33;22.03;;;;;;;-0.23;100.00;99023.03;4220911;28;20279;-70
2022/12/10 09:22:50;;;;;;;54.93;19.20;;;;;;;-0.17;100.00;99032.22;4220812;28;20292;-73
2022/12/10 09:25:17;;;;;;;58.30;19.57;;;;;;;-0.26;100.00;99023.25;4232838;28;20230;-70
2022/12/10 09:27:44;;;;;;;62.70;20.77;;;;;;;-0.22;100.00;99024.69;4207196;28;20538;-72
2022/12/10 09:30:11;;;;;;;57.13;19.53;;;;;;;-0.22;100.00;99024.69;4219446;28;20327;-75
2022/12/10 09:32:38;;;;;;;53.33;18.93;;;;;;;-0.32;100.00;99023.69;4207612;28;20575;-69
2022/12/10 09:35:06;;;;;;;61.77;20.27;;;;;;;-0.29;100.00;99019.06;4213765;28;20262;-68
2022/12/10 09:37:32;;;;;;;61.93;19.87;;;;;;;-0.27;100.00;99016.34;4215485;28;20237;-74
2022/12/10 09:39:59;;;;;;;64.67;21.13;;;;;;;-0.16;100.00;99008.56;4206569;28;21614;-72
2022/12/10 09:42:57;;;;;;;56.50;19.27;;;;;;;-0.18;100.00;99012.25;4201225;28;20406;-72
2022/12/10 09:45:32;;;;;;;53.07;18.80;;;;;;;-0.27;100.00;99005.91;4230188;28;22743;-72
2022/12/10 09:48:21;;;;;;;66.30;20.67;;;;;;;-0.16;100.00;99002.53;4211979;28;22453;-73
2022/12/10 09:50:58;;;;;;;57.40;18.77;;;;;;;-0.17;100.00;98999.03;4219905;28;21752;-73
2022/12/10 09:53:26;;;;;;;60.33;20.43;;;;;;;-0.25;100.00;99007.47;4207443;28;20338;-74
2022/12/10 09:55:53;;;;;;;59.03;20.17;;;;;;;-0.23;100.00;99007.34;4212980;28;20243;-70
2022/12/10 09:58:23;;;;;;;60.13;20.50;;;;;;;-0.25;100.00;99004.00;4212405;28;21891;-74
2022/12/10 10:01:01;;;;;;;58.90;19.83;;;;;;;-0.30;100.00;99013.97;4209337;28;20240;-71
2022/12/10 10:03:32;;;;;;;65.43;20.83;;;;;;;-0.24;100.00;99018.75;4198698;28;20232;-74
2022/12/10 10:06:02;;;;;;;64.30;20.87;;;;;;;-0.37;100.00;99026.66;4204121;28;20403;-72
2022/12/10 10:08:40;;;;;;;62.60;20.33;;;;;;;-0.30;100.00;99027.03;4226911;28;20633;-73
2022/12/10 10:11:12;;;;;;;63.70;21.27;;;;;;;-0.22;100.00;99032.53;4202277;28;21469;-74
2022/12/10 10:13:42;;;;;;;67.03;20.77;;;;;;;-0.19;100.00;99034.09;4208242;28;20380;-71
2022/12/10 10:16:18;;;;;;;61.00;20.57;;;;;;;-0.09;100.00;99030.72;4212830;28;22611;-73
2022/12/10 10:19:16;;;;;;;67.53;21.37;;;;;;;0.05;100.00;99031.47;4237510;28;23019;-70
2022/12/10 10:21:45;;;;;;;62.33;20.33;;;;;;;0.04;100.00;99028.00;4210138;28;20299;-71
2022/12/10 10:24:17;;;;;;;60.13;19.53;;;;;;;0.09;100.00;99028.50;4209163;28;20242;-70
2022/12/10 10:26:45;;;;;;;62.40;20.33;;;;;;;0.11;100.00;99028.41;4212095;28;25226;-74
2022/12/10 10:29:17;;;;;;;61.13;21.33;;;;;;;-0.04;100.00;99028.59;4235709;28;20299;-73
2022/12/10 10:31:44;;;;;;;61.97;20.63;;;;;;;0.06;100.00;99030.53;4220811;28;20228;-72
2022/12/10 10:34:19;;;;;;;62.97;20.40;;;;;;;0.05;100.00;99023.59;4219932;28;20331;-72
2022/12/10 10:36:46;;;;;;;56.50;19.67;;;;;;;-0.01;100.00;99017.88;4230963;28;20247;-70
2022/12/10 10:39:16;;;;;;;60.43;20.07;;;;;;;0.11;100.00;99015.31;4214311;28;21446;-72
2022/12/10 10:41:42;;;;;;;59.63;20.33;;;;;;;0.12;100.00;99010.00;4238580;28;21824;-75
2022/12/10 10:44:18;;;;;;;61.67;19.70;;;;;;;0.21;100.00;99008.44;4205292;28;20240;-72
2022/12/10 10:46:47;;;;;;;53.00;19.03;;;;;;;0.14;100.00;99005.47;4215617;28;20947;-75
2022/12/10 10:49:27;;;;;;;59.10;20.43;;;;;;;0.18;100.00;99000.84;4212559;28;20232;-72
2022/12/10 10:51:59;;;;;;;62.33;20.53;;;;;;;0.12;100.00;98994.28;4212443;28;20241;-71
2022/12/10 10:54:37;;;;;;;63.60;20.13;;;;;;;0.05;100.00;98980.00;4231691;28;21782;-72
2022/12/10 10:57:10;;;;;;;57.80;19.07;;;;;;;0.10;100.00;98982.28;4218007;28;20506;-75
2022/12/10 10:59:37;;;;;;;59.40;20.00;;;;;;;0.15;100.00;98980.16;4228686;28;20230;-73
2022/12/10 11:02:20;;;;;;;65.10;21.03;;;;;;;0.22;100.00;98977.91;4209629;28;22676;-73
2022/12/10 11:04:52;;;;;;;64.57;20.50;;;;;;;0.15;100.00;98985.38;4235458;28;20224;-73
2022/12/10 11:07:35;;;;;;;62.87;20.03;;;;;;;0.16;100.00;98977.44;4215425;28;20258;-74
2022/12/10 11:10:16;;;;;;;61.80;20.27;;;;;;;0.24;100.00;98969.00;4221600;28;20487;-74
2022/12/10 11:12:45;;;;;;;63.00;20.00;;;;;;;0.15;100.00;98967.06;4225970;28;20238;-70
2022/12/10 11:15:23;;;;;;;68.73;21.77;;;;;;;-0.01;100.00;98965.59;4211586;28;20224;-73
2022/12/10 11:17:51;;;;;;;61.60;20.23;;;;;;;0.06;100.00;98968.59;4227238;28;21831;-72
2022/12/10 11:20:24;;;;;;;63.73;19.63;;;;;;;0.14;100.00;98973.22;4216550;28;20236;-73
2022/12/10 11:22:55;;;;;;;64.77;21.17;;;;;;;0.10;100.00;98977.06;4244877;28;20967;-76
2022/12/10 11:25:36;;;;;;;63.33;19.63;;;;;;;0.15;100.00;98974.91;4215930;28;20288;-72
2022/12/10 11:28:13;;;;;;;68.40;20.17;;;;;;;0.08;100.00;98969.31;4234974;28;20235;-71